createdAt,value
2023-09-14T00:00:15.506Z,14.6
2023-09-14T00:03:16.511Z,14.6
2023-09-14T00:12:19.584Z,14.6
2023-09-14T00:15:20.611Z,14.6
2023-09-14T00:18:21.635Z,14.6
2023-09-14T00:21:22.648Z,14.6
2023-09-14T00:24:23.668Z,14.7
2023-09-14T00:25:40.065Z,14.7
2023-09-14T00:27:24.681Z,14.6
2023-09-14T00:30:25.725Z,14.7
2023-09-14T00:36:27.767Z,14.7
2023-09-14T00:39:28.790Z,14.6
2023-09-14T00:42:29.821Z,14.6
2023-09-14T00:45:30.832Z,14.6
2023-09-14T00:48:31.846Z,14.6
2023-09-14T00:51:32.884Z,14.6
2023-09-14T00:54:33.898Z,14.6
2023-09-14T00:55:50.316Z,14.6
2023-09-14T01:09:39.023Z,14.6
2023-09-14T01:12:40.034Z,14.7
2023-09-14T01:15:41.048Z,14.6
2023-09-14T01:18:42.076Z,14.7
2023-09-14T01:21:43.096Z,14.6
2023-09-14T01:27:45.148Z,14.6
2023-09-14T01:30:46.182Z,14.6
2023-09-14T01:33:47.194Z,14.6
2023-09-14T01:39:49.222Z,14.7
2023-09-14T01:42:50.257Z,14.6
2023-09-14T01:48:52.292Z,14.4
2023-09-14T01:51:53.327Z,14.5
2023-09-14T01:56:10.813Z,14.5
2023-09-14T01:57:55.375Z,14.5
2023-09-14T02:03:57.406Z,14.5
2023-09-14T02:06:58.435Z,14.5
2023-09-14T02:16:01.494Z,14.5
2023-09-14T02:19:02.532Z,14.5
2023-09-14T02:22:03.551Z,14.5
2023-09-14T02:25:04.583Z,14.5
2023-09-14T02:34:07.631Z,14.4
2023-09-14T02:40:09.697Z,14.4
2023-09-14T02:43:10.703Z,14.4
2023-09-14T02:46:11.746Z,14.4
2023-09-14T02:49:12.759Z,14.4
2023-09-14T02:52:13.795Z,14.4
2023-09-14T02:55:14.788Z,14.3
2023-09-14T03:01:16.858Z,14.3
2023-09-14T03:04:17.890Z,14.3
2023-09-14T03:10:19.898Z,14.4
2023-09-14T03:13:20.946Z,14.4
2023-09-14T03:16:21.962Z,14.4
2023-09-14T03:19:23.001Z,14.4
2023-09-14T03:22:24.010Z,14.4
2023-09-14T03:28:26.057Z,14.4
2023-09-14T03:40:30.151Z,14.3
2023-09-14T03:43:31.176Z,14.2
2023-09-14T03:46:32.198Z,14.2
2023-09-14T03:55:35.272Z,14.2
2023-09-14T03:56:51.787Z,14.2
2023-09-14T04:04:38.306Z,14.1
2023-09-14T04:07:39.334Z,14.1
2023-09-14T04:10:40.378Z,14.2
2023-09-14T04:13:41.402Z,14.1
2023-09-14T04:16:42.424Z,14.1
2023-09-14T04:19:43.424Z,14
2023-09-14T04:22:44.448Z,14
2023-09-14T04:25:45.496Z,14
2023-09-14T04:27:02.042Z,14
2023-09-14T04:28:46.490Z,14
2023-09-14T04:31:47.515Z,14
2023-09-14T04:34:48.540Z,13.9
2023-09-14T04:37:49.558Z,13.9
2023-09-14T04:40:50.608Z,13.9
2023-09-14T04:43:51.632Z,13.9
2023-09-14T04:49:53.688Z,13.9
2023-09-14T04:52:54.682Z,13.8
2023-09-14T04:57:12.258Z,13.8
2023-09-14T04:58:56.722Z,13.8
2023-09-14T05:04:58.791Z,13.8
2023-09-14T05:07:59.785Z,13.8
2023-09-14T05:11:00.812Z,13.8
2023-09-14T05:14:01.842Z,13.8
2023-09-14T05:17:02.861Z,13.8
2023-09-14T05:26:05.934Z,13.8
2023-09-14T05:27:22.535Z,13.8
2023-09-14T05:29:06.947Z,13.9
2023-09-14T05:32:07.976Z,13.9
2023-09-14T05:35:09.010Z,13.9
2023-09-14T05:38:10.019Z,13.9
2023-09-14T05:41:11.045Z,13.8
2023-09-14T05:44:12.084Z,13.8
2023-09-14T05:47:13.086Z,13.8
2023-09-14T05:53:15.162Z,13.8
2023-09-14T05:56:16.181Z,13.8
2023-09-14T05:57:32.754Z,13.8
2023-09-14T05:59:17.185Z,13.7
2023-09-14T06:02:18.233Z,13.7
2023-09-14T06:08:20.275Z,13.7
2023-09-14T06:11:21.303Z,13.7
2023-09-14T06:14:22.320Z,13.7
2023-09-14T06:17:23.340Z,13.7
2023-09-14T06:20:24.372Z,13.7
2023-09-14T06:23:25.358Z,13.7
2023-09-14T06:26:26.393Z,13.7
2023-09-14T06:29:27.444Z,13.7
2023-09-14T06:32:28.425Z,13.6
2023-09-14T06:35:29.457Z,13.6
2023-09-14T06:38:30.471Z,13.7
2023-09-14T06:41:31.509Z,13.7
2023-09-14T06:47:33.542Z,13.8
2023-09-14T06:50:34.598Z,13.8
2023-09-14T06:53:35.594Z,13.9
2023-09-14T06:56:36.614Z,14
2023-09-14T06:59:37.672Z,14.2
2023-09-14T07:02:38.663Z,14.1
2023-09-14T07:05:39.719Z,14.2
2023-09-14T07:14:42.749Z,14.4
2023-09-14T07:20:44.801Z,14.7
2023-09-14T07:23:45.812Z,14.8
2023-09-14T07:26:46.836Z,14.9
2023-09-14T07:29:47.871Z,15
2023-09-14T07:32:48.919Z,15.1
2023-09-14T07:41:51.985Z,15.4
2023-09-14T07:47:53.994Z,15.5
2023-09-14T07:50:55.046Z,15.6
2023-09-14T07:53:56.072Z,15.7
2023-09-14T07:58:13.731Z,15.9
2023-09-14T07:59:58.117Z,16
2023-09-14T08:02:59.106Z,16
2023-09-14T08:06:00.136Z,16
2023-09-14T08:09:01.196Z,16.4
2023-09-14T08:12:02.183Z,16.8
2023-09-14T08:18:04.255Z,17
2023-09-14T08:21:05.285Z,17.2
2023-09-14T08:24:06.272Z,18.1
2023-09-14T08:27:07.327Z,18.2
2023-09-14T08:30:08.314Z,18.6
2023-09-14T08:36:10.411Z,18.1
2023-09-14T08:39:11.398Z,18.2
2023-09-14T08:42:12.409Z,18.1
2023-09-14T08:45:13.469Z,17.9
2023-09-14T08:48:14.503Z,17.6
2023-09-14T08:54:16.532Z,18.6
2023-09-14T08:57:17.523Z,19
2023-09-14T09:03:19.575Z,18.4
2023-09-14T09:06:20.610Z,18.9
2023-09-14T09:12:22.677Z,19.9
2023-09-14T09:15:23.665Z,21.4
2023-09-14T09:18:24.718Z,22.2
2023-09-14T09:21:25.755Z,21.9
2023-09-14T09:24:26.766Z,21.5
2023-09-14T09:28:44.505Z,19.2
2023-09-14T09:30:28.807Z,19.3
2023-09-14T09:33:29.801Z,19.4
2023-09-14T09:36:30.830Z,19.8
2023-09-14T09:39:31.888Z,20
2023-09-14T09:42:32.903Z,20.1
2023-09-14T09:45:33.925Z,20
2023-09-14T09:48:34.959Z,20.2
2023-09-14T09:51:35.977Z,20.1
2023-09-14T09:54:36.973Z,20.2
2023-09-14T09:57:37.984Z,20.2
2023-09-14T09:58:54.755Z,20
2023-09-14T10:03:40.043Z,19.9
2023-09-14T10:06:41.056Z,19.8
2023-09-14T10:09:42.078Z,19.8
2023-09-14T10:12:43.094Z,19.6
2023-09-14T10:15:44.135Z,20.3
2023-09-14T10:18:45.178Z,20.4
2023-09-14T10:21:46.179Z,20.2
2023-09-14T10:24:47.224Z,20.4
2023-09-14T10:27:48.249Z,20.5
2023-09-14T10:29:05.008Z,20.6
2023-09-14T10:30:49.233Z,20.9
2023-09-14T10:33:50.308Z,21.4
2023-09-14T10:36:51.281Z,22
2023-09-14T10:39:52.313Z,21.1
2023-09-14T10:42:53.365Z,21.1
2023-09-14T10:48:55.410Z,20.7
2023-09-14T10:51:56.399Z,20.6
2023-09-14T10:54:57.469Z,20.6
2023-09-14T10:57:58.452Z,21.1
2023-09-14T11:04:00.491Z,21.8
2023-09-14T11:07:01.519Z,22.1
2023-09-14T11:10:02.584Z,22.4
2023-09-14T11:13:03.603Z,22.2
2023-09-14T11:19:05.612Z,22.1
2023-09-14T11:22:06.641Z,21.6
2023-09-14T11:28:08.719Z,20.7
2023-09-14T11:29:25.472Z,20.3
2023-09-14T11:31:09.752Z,19.9
2023-09-14T11:37:11.796Z,19.6
2023-09-14T11:43:13.833Z,19.6
2023-09-14T11:46:14.870Z,19.6
2023-09-14T11:49:15.889Z,19.5
2023-09-14T11:52:16.859Z,19.6
2023-09-14T11:55:17.934Z,19.8
2023-09-14T11:58:18.909Z,19.9
2023-09-14T11:59:35.765Z,19.8
2023-09-14T12:01:19.932Z,19.8
2023-09-14T12:04:21.006Z,19.8
2023-09-14T12:07:21.985Z,19.9
2023-09-14T12:10:22.995Z,19.6
2023-09-14T12:13:24.029Z,19.7
2023-09-14T12:16:25.043Z,20
2023-09-14T12:19:26.066Z,19.9
2023-09-14T12:22:27.093Z,19.9
2023-09-14T12:25:28.123Z,19.6
2023-09-14T12:28:29.151Z,19.4
2023-09-14T12:29:46.014Z,20
2023-09-14T12:34:31.187Z,20.8
2023-09-14T12:37:32.210Z,21.1
2023-09-14T12:40:33.239Z,21.1
2023-09-14T12:43:34.310Z,20.8
2023-09-14T12:55:38.344Z,20.1
2023-09-14T12:58:39.407Z,20.1
2023-09-14T12:59:56.250Z,20.1
2023-09-14T13:01:40.386Z,20.1
2023-09-14T13:04:41.412Z,20.1
2023-09-14T13:07:42.470Z,20.1
2023-09-14T13:10:43.456Z,20.1
2023-09-14T13:13:44.489Z,20.2
2023-09-14T13:16:45.544Z,20.2
2023-09-14T13:19:46.564Z,20.3
2023-09-14T13:25:48.607Z,20.3
2023-09-14T13:28:49.588Z,20.1
2023-09-14T13:31:50.615Z,19.9
2023-09-14T13:34:51.635Z,20
2023-09-14T13:37:52.657Z,20.1
2023-09-14T13:40:53.730Z,20.1
2023-09-14T13:43:54.755Z,20
2023-09-14T13:46:55.743Z,20
2023-09-14T13:49:56.751Z,20.1
2023-09-14T13:52:57.782Z,20.2
2023-09-14T13:55:58.798Z,19.9
2023-09-14T13:58:59.819Z,19.9
2023-09-14T14:02:00.896Z,19.8
2023-09-14T14:08:02.904Z,19.9
2023-09-14T14:14:04.935Z,19.7
2023-09-14T14:17:05.964Z,19.7
2023-09-14T14:20:06.997Z,19.7
2023-09-14T14:23:08.002Z,19.6
2023-09-14T14:26:09.025Z,19.7
2023-09-14T14:29:10.099Z,20.2
2023-09-14T14:32:11.086Z,20.9
2023-09-14T14:35:12.144Z,21
2023-09-14T14:38:13.186Z,21.5
2023-09-14T14:41:14.199Z,21.8
2023-09-14T14:44:15.229Z,21.9
2023-09-14T14:47:16.252Z,21.7
2023-09-14T14:50:17.213Z,21.1
2023-09-14T14:53:18.279Z,21.2
2023-09-14T14:59:20.338Z,21.3
2023-09-14T15:02:21.351Z,21.6
2023-09-14T15:08:23.410Z,21.3
2023-09-14T15:11:24.370Z,21.6
2023-09-14T15:14:25.444Z,21.7
2023-09-14T15:17:26.479Z,22.1
2023-09-14T15:20:27.490Z,21.9
2023-09-14T15:23:28.511Z,21.7
2023-09-14T15:26:29.482Z,21.6
2023-09-14T15:29:30.566Z,21.7
2023-09-14T15:32:31.545Z,21.9
2023-09-14T15:41:34.615Z,20.4
2023-09-14T15:44:35.686Z,20.6
2023-09-14T15:47:36.660Z,20.7
2023-09-14T15:50:37.669Z,21.3
2023-09-14T15:53:38.686Z,21.6
2023-09-14T15:56:39.759Z,21.3
2023-09-14T15:59:40.799Z,21.1
2023-09-14T16:05:42.796Z,20.6
2023-09-14T16:08:43.862Z,20.3
2023-09-14T16:11:44.824Z,19.9
2023-09-14T16:14:45.900Z,19.9
2023-09-14T16:17:46.938Z,19.8
2023-09-14T16:23:48.921Z,19.7
2023-09-14T16:32:52.164Z,19.5
2023-09-14T16:36:09.461Z,19.5
2023-09-14T16:39:10.427Z,19.2
2023-09-14T16:45:12.469Z,19
2023-09-14T16:48:13.494Z,18.9
2023-09-14T16:54:15.592Z,18.5
2023-09-14T16:57:16.554Z,18.2
2023-09-14T17:00:17.642Z,18.1
2023-09-14T17:01:33.608Z,17.9
2023-09-14T17:03:18.658Z,17.8
2023-09-14T17:06:19.629Z,17.6
2023-09-14T17:09:20.703Z,17.4
2023-09-14T17:12:21.687Z,17.2
2023-09-14T17:15:22.694Z,17
2023-09-14T17:21:24.809Z,16.7
2023-09-14T17:24:25.825Z,16.7
2023-09-14T17:27:26.837Z,16.5
2023-09-14T17:30:27.820Z,16.4
2023-09-14T17:36:29.863Z,16.2
2023-09-14T17:39:30.891Z,16.1
2023-09-14T17:42:31.910Z,16
2023-09-14T17:45:32.930Z,15.9
2023-09-14T17:48:33.967Z,15.9
2023-09-14T17:51:34.975Z,15.8
2023-09-14T17:54:35.990Z,15.7
2023-09-14T17:57:37.036Z,15.5
2023-09-14T18:00:38.037Z,15.3
2023-09-14T18:01:54.080Z,15.3
2023-09-14T18:03:39.083Z,15.2
2023-09-14T18:06:40.103Z,15.1
2023-09-14T18:09:41.112Z,15
2023-09-14T18:12:42.139Z,15.1
2023-09-14T18:18:44.184Z,15
2023-09-14T18:21:45.204Z,15
2023-09-14T18:24:46.232Z,15
2023-09-14T18:27:47.256Z,15
2023-09-14T18:32:04.480Z,14.7
2023-09-14T18:33:49.307Z,14.6
2023-09-14T18:39:18.569Z,14.6
2023-09-14T18:42:19.611Z,14.6
2023-09-14T18:45:20.624Z,14.5
2023-09-14T18:48:21.643Z,14.5
2023-09-14T18:51:22.669Z,14.4
2023-09-14T18:54:23.676Z,14.4
2023-09-14T18:57:24.706Z,14.4
2023-09-14T19:00:25.723Z,14.2
2023-09-14T19:02:14.718Z,14.1
2023-09-14T19:03:31.072Z,14
2023-09-14T19:09:33.111Z,13.9
2023-09-14T19:12:34.158Z,13.8
2023-09-14T19:21:37.212Z,13.5
2023-09-14T19:27:39.251Z,13.3
2023-09-14T19:30:40.279Z,13.2
2023-09-14T19:33:41.290Z,13.2
2023-09-14T19:36:42.322Z,13.3
2023-09-14T19:39:43.348Z,13.3
2023-09-14T19:42:44.360Z,13.1
2023-09-14T19:45:45.395Z,13
2023-09-14T19:48:46.403Z,13
2023-09-14T19:54:48.445Z,12.9
2023-09-14T19:57:49.477Z,12.9
2023-09-14T20:00:50.510Z,12.9
2023-09-14T20:03:51.517Z,12.8
2023-09-14T20:06:52.538Z,12.8
2023-09-14T20:15:55.607Z,12.8
2023-09-14T20:18:56.648Z,12.7
2023-09-14T20:24:58.685Z,12.5
2023-09-14T20:27:59.712Z,12.5
2023-09-14T20:32:45.449Z,12.7
2023-09-14T20:34:01.764Z,12.7
2023-09-14T20:37:02.772Z,12.7
2023-09-14T20:40:03.816Z,12.7
2023-09-14T20:43:04.831Z,12.7
2023-09-14T20:46:05.846Z,12.5
2023-09-14T20:49:06.866Z,12.4
2023-09-14T20:52:07.919Z,12.2
2023-09-14T20:55:08.925Z,12.2
2023-09-14T20:58:09.937Z,12.2
2023-09-14T21:01:10.963Z,12.2
2023-09-14T21:07:13.092Z,12.2
2023-09-14T21:10:14.106Z,12.2
2023-09-14T21:13:15.127Z,12.2
2023-09-14T21:16:16.143Z,12.3
2023-09-14T21:19:17.174Z,12.3
2023-09-14T21:25:19.223Z,12.1
2023-09-14T21:31:21.270Z,12.1
2023-09-14T21:33:05.953Z,12.1
2023-09-14T21:34:22.287Z,12.1
2023-09-14T21:37:23.333Z,12.1
2023-09-14T21:40:24.335Z,12.2
2023-09-14T21:43:25.374Z,12.1
2023-09-14T21:46:26.415Z,12.1
2023-09-14T21:49:27.420Z,12
2023-09-14T21:52:28.427Z,12
2023-09-14T21:55:29.475Z,12
2023-09-14T21:58:30.480Z,12
2023-09-14T22:04:32.547Z,11.8
2023-09-14T22:07:33.582Z,11.8
2023-09-14T22:10:34.571Z,11.7
2023-09-14T22:13:35.623Z,11.6
2023-09-14T22:22:38.694Z,11.4
2023-09-14T22:28:40.733Z,11.5
2023-09-14T22:31:41.767Z,11.5
2023-09-14T22:33:26.485Z,11.3
2023-09-14T22:34:42.790Z,11.4
2023-09-14T22:37:43.816Z,11.4
2023-09-14T22:40:44.832Z,11.4
2023-09-14T22:43:45.873Z,11.3
2023-09-14T22:49:47.902Z,11.1
2023-09-14T22:55:49.952Z,11.1
2023-09-14T22:58:50.977Z,11.1
2023-09-14T23:03:36.741Z,10.9
2023-09-14T23:07:54.061Z,10.9
2023-09-14T23:10:55.069Z,11
2023-09-14T23:13:56.093Z,11
2023-09-14T23:22:59.176Z,10.9
2023-09-14T23:26:00.206Z,10.8
2023-09-14T23:29:01.239Z,10.8
2023-09-14T23:33:47.015Z,10.9
2023-09-14T23:35:03.280Z,10.9
2023-09-14T23:41:05.320Z,10.9
2023-09-14T23:44:06.344Z,10.8
2023-09-14T23:47:07.375Z,10.7
2023-09-14T23:53:09.408Z,10.6
